sensor_id;sensor_type;location;lat;lon;timestamp;temperature;humidity
20726;DHT22;10524;48.132;8.518;2022-12-20T00:01:29;1.00;99.90
20726;DHT22;10524;48.132;8.518;2022-12-20T00:03:59;1.40;99.90
20726;DHT22;10524;48.132;8.518;2022-12-20T00:06:26;1.70;99.90
20726;DHT22;10524;48.132;8.518;2022-12-20T00:09:00;1.80;99.90
20726;DHT22;10524;48.132;8.518;2022-12-20T00:11:27;1.90;99.90
20726;DHT22;10524;48.132;8.518;2022-12-20T00:13:53;1.80;99.90
20726;DHT22;10524;48.132;8.518;2022-12-20T00:16:21;1.80;99.90
20726;DHT22;10524;48.132;8.518;2022-12-20T00:18:51;1.90;99.90
20726;DHT22;10524;48.132;8.518;2022-12-20T00:21:17;1.90;99.90
20726;DHT22;10524;48.132;8.518;2022-12-20T00:23:42;2.00;99.90
20726;DHT22;10524;48.132;8.518;2022-12-20T00:26:10;2.00;99.90
20726;DHT22;10524;48.132;8.518;2022-12-20T00:28:37;2.00;99.90
20726;DHT22;10524;48.132;8.518;2022-12-20T00:31:04;2.00;99.90
20726;DHT22;10524;48.132;8.518;2022-12-20T00:33:32;2.00;99.90
20726;DHT22;10524;48.132;8.518;2022-12-20T00:35:57;1.90;99.90
20726;DHT22;10524;48.132;8.518;2022-12-20T00:38:24;2.00;99.90
20726;DHT22;10524;48.132;8.518;2022-12-20T00:41:10;2.10;99.90
20726;DHT22;10524;48.132;8.518;2022-12-20T00:43:37;2.00;99.90
20726;DHT22;10524;48.132;8.518;2022-12-20T00:46:04;2.00;99.90
20726;DHT22;10524;48.132;8.518;2022-12-20T00:48:30;2.00;99.90
20726;DHT22;10524;48.132;8.518;2022-12-20T00:51:11;1.90;99.90
20726;DHT22;10524;48.132;8.518;2022-12-20T00:53:38;1.80;99.90
20726;DHT22;10524;48.132;8.518;2022-12-20T00:56:04;1.60;99.90
20726;DHT22;10524;48.132;8.518;2022-12-20T00:58:32;1.60;99.90
20726;DHT22;10524;48.132;8.518;2022-12-20T01:00:58;1.60;99.90
20726;DHT22;10524;48.132;8.518;2022-12-20T01:03:24;1.70;99.90
20726;DHT22;10524;48.132;8.518;2022-12-20T01:05:52;1.80;99.90
20726;DHT22;10524;48.132;8.518;2022-12-20T01:08:18;2.00;99.90
20726;DHT22;10524;48.132;8.518;2022-12-20T01:10:44;2.10;99.90
20726;DHT22;10524;48.132;8.518;2022-12-20T01:13:09;2.10;99.90
20726;DHT22;10524;48.132;8.518;2022-12-20T01:15:35;2.10;99.90
20726;DHT22;10524;48.132;8.518;2022-12-20T01:18:01;2.10;99.90
20726;DHT22;10524;48.132;8.518;2022-12-20T01:20:27;2.20;99.90
20726;DHT22;10524;48.132;8.518;2022-12-20T01:22:52;2.30;99.90
20726;DHT22;10524;48.132;8.518;2022-12-20T01:25:18;2.30;99.90
20726;DHT22;10524;48.132;8.518;2022-12-20T01:27:43;2.40;99.90
20726;DHT22;10524;48.132;8.518;2022-12-20T01:30:10;2.40;99.90
20726;DHT22;10524;48.132;8.518;2022-12-20T01:32:35;2.30;99.90
20726;DHT22;10524;48.132;8.518;2022-12-20T01:35:01;2.40;99.90
20726;DHT22;10524;48.132;8.518;2022-12-20T01:37:27;2.40;99.90
20726;DHT22;10524;48.132;8.518;2022-12-20T01:39:53;2.40;99.90
20726;DHT22;10524;48.132;8.518;2022-12-20T01:42:18;2.40;99.90
20726;DHT22;10524;48.132;8.518;2022-12-20T01:47:11;2.40;99.90
20726;DHT22;10524;48.132;8.518;2022-12-20T01:49:46;2.40;99.90
20726;DHT22;10524;48.132;8.518;2022-12-20T01:52:18;2.40;99.90
20726;DHT22;10524;48.132;8.518;2022-12-20T01:54:49;2.40;99.90
20726;DHT22;10524;48.132;8.518;2022-12-20T01:57:40;2.30;99.90
20726;DHT22;10524;48.132;8.518;2022-12-20T02:00:07;2.30;99.90
20726;DHT22;10524;48.132;8.518;2022-12-20T02:02:34;2.20;99.90
20726;DHT22;10524;48.132;8.518;2022-12-20T02:05:00;2.10;99.90
20726;DHT22;10524;48.132;8.518;2022-12-20T02:07:28;2.00;99.90
20726;DHT22;10524;48.132;8.518;2022-12-20T02:09:56;2.00;99.90
20726;DHT22;10524;48.132;8.518;2022-12-20T02:12:30;2.00;99.90
20726;DHT22;10524;48.132;8.518;2022-12-20T02:15:20;1.90;99.90
20726;DHT22;10524;48.132;8.518;2022-12-20T02:34:14;1.90;99.90
20726;DHT22;10524;48.132;8.518;2022-12-20T02:36:41;1.90;99.90
20726;DHT22;10524;48.132;8.518;2022-12-20T02:39:10;2.00;99.90
20726;DHT22;10524;48.132;8.518;2022-12-20T02:41:45;2.00;99.90
20726;DHT22;10524;48.132;8.518;2022-12-20T02:44:14;2.00;99.90
20726;DHT22;10524;48.132;8.518;2022-12-20T02:47:01;1.90;99.90
20726;DHT22;10524;48.132;8.518;2022-12-20T02:49:33;2.00;99.90
20726;DHT22;10524;48.132;8.518;2022-12-20T02:52:00;2.00;99.90
20726;DHT22;10524;48.132;8.518;2022-12-20T02:54:28;2.00;99.90
20726;DHT22;10524;48.132;8.518;2022-12-20T02:57:04;2.00;99.90
20726;DHT22;10524;48.132;8.518;2022-12-20T02:59:54;2.00;99.90
20726;DHT22;10524;48.132;8.518;2022-12-20T03:02:22;1.90;99.90
20726;DHT22;10524;48.132;8.518;2022-12-20T03:04:48;1.90;99.90
20726;DHT22;10524;48.132;8.518;2022-12-20T03:07:14;1.90;99.90
20726;DHT22;10524;48.132;8.518;2022-12-20T03:09:42;1.90;99.90
20726;DHT22;10524;48.132;8.518;2022-12-20T03:12:10;1.90;99.90
20726;DHT22;10524;48.132;8.518;2022-12-20T03:14:39;1.80;99.90
20726;DHT22;10524;48.132;8.518;2022-12-20T03:17:05;1.90;99.90
20726;DHT22;10524;48.132;8.518;2022-12-20T03:19:31;2.00;99.90
20726;DHT22;10524;48.132;8.518;2022-12-20T03:21:57;2.10;99.90
20726;DHT22;10524;48.132;8.518;2022-12-20T03:24:23;2.10;99.90
20726;DHT22;10524;48.132;8.518;2022-12-20T03:26:48;2.10;99.90
20726;DHT22;10524;48.132;8.518;2022-12-20T03:29:14;2.10;99.90
20726;DHT22;10524;48.132;8.518;2022-12-20T03:31:40;2.20;99.90
20726;DHT22;10524;48.132;8.518;2022-12-20T03:34:05;2.20;99.90
20726;DHT22;10524;48.132;8.518;2022-12-20T03:36:32;2.30;99.90
20726;DHT22;10524;48.132;8.518;2022-12-20T03:38:57;2.30;99.90
20726;DHT22;10524;48.132;8.518;2022-12-20T03:41:23;2.30;99.90
20726;DHT22;10524;48.132;8.518;2022-12-20T03:43:49;2.20;99.90
20726;DHT22;10524;48.132;8.518;2022-12-20T03:46:15;2.30;99.90
20726;DHT22;10524;48.132;8.518;2022-12-20T03:48:42;2.40;99.90
20726;DHT22;10524;48.132;8.518;2022-12-20T03:51:07;2.50;99.90
20726;DHT22;10524;48.132;8.518;2022-12-20T03:53:33;2.60;99.90
20726;DHT22;10524;48.132;8.518;2022-12-20T03:55:59;2.60;99.90
20726;DHT22;10524;48.132;8.518;2022-12-20T03:58:24;2.70;99.90
20726;DHT22;10524;48.132;8.518;2022-12-20T04:00:50;2.70;99.90
20726;DHT22;10524;48.132;8.518;2022-12-20T04:03:16;2.70;99.90
20726;DHT22;10524;48.132;8.518;2022-12-20T04:05:42;2.80;99.90
20726;DHT22;10524;48.132;8.518;2022-12-20T04:08:07;2.80;99.90
20726;DHT22;10524;48.132;8.518;2022-12-20T04:10:33;2.80;99.90
20726;DHT22;10524;48.132;8.518;2022-12-20T04:13:18;2.80;99.90
20726;DHT22;10524;48.132;8.518;2022-12-20T04:15:44;2.80;99.90
20726;DHT22;10524;48.132;8.518;2022-12-20T04:18:10;2.80;99.90
20726;DHT22;10524;48.132;8.518;2022-12-20T04:20:35;2.80;99.90
20726;DHT22;10524;48.132;8.518;2022-12-20T04:23:01;2.80;99.90
20726;DHT22;10524;48.132;8.518;2022-12-20T04:25:27;2.90;99.90
20726;DHT22;10524;48.132;8.518;2022-12-20T04:27:52;2.80;99.90
20726;DHT22;10524;48.132;8.518;2022-12-20T04:30:18;2.80;99.90
20726;DHT22;10524;48.132;8.518;2022-12-20T04:32:43;2.80;99.90
20726;DHT22;10524;48.132;8.518;2022-12-20T04:35:09;2.90;99.90
20726;DHT22;10524;48.132;8.518;2022-12-20T04:37:35;2.90;99.90
20726;DHT22;10524;48.132;8.518;2022-12-20T04:40:00;2.80;99.90
20726;DHT22;10524;48.132;8.518;2022-12-20T04:42:26;2.90;99.90
20726;DHT22;10524;48.132;8.518;2022-12-20T04:44:52;2.90;99.90
20726;DHT22;10524;48.132;8.518;2022-12-20T04:47:17;2.80;99.90
20726;DHT22;10524;48.132;8.518;2022-12-20T04:49:43;2.80;99.90
20726;DHT22;10524;48.132;8.518;2022-12-20T04:52:08;2.80;99.90
20726;DHT22;10524;48.132;8.518;2022-12-20T04:54:53;2.90;99.90
20726;DHT22;10524;48.132;8.518;2022-12-20T04:57:18;2.90;99.90
20726;DHT22;10524;48.132;8.518;2022-12-20T04:59:44;3.00;99.90
20726;DHT22;10524;48.132;8.518;2022-12-20T05:02:09;3.00;99.90
20726;DHT22;10524;48.132;8.518;2022-12-20T05:04:35;3.00;99.90
20726;DHT22;10524;48.132;8.518;2022-12-20T05:07:01;3.10;99.90
20726;DHT22;10524;48.132;8.518;2022-12-20T05:09:26;3.20;99.90
20726;DHT22;10524;48.132;8.518;2022-12-20T05:11:52;3.30;99.90
20726;DHT22;10524;48.132;8.518;2022-12-20T05:14:18;3.40;99.90
20726;DHT22;10524;48.132;8.518;2022-12-20T05:16:43;3.40;99.90
20726;DHT22;10524;48.132;8.518;2022-12-20T05:19:09;3.50;99.90
20726;DHT22;10524;48.132;8.518;2022-12-20T05:21:34;3.50;99.90
20726;DHT22;10524;48.132;8.518;2022-12-20T05:24:18;3.60;99.90
20726;DHT22;10524;48.132;8.518;2022-12-20T05:27:03;3.70;99.90
20726;DHT22;10524;48.132;8.518;2022-12-20T05:29:28;3.70;99.90
20726;DHT22;10524;48.132;8.518;2022-12-20T05:31:54;3.60;99.90
20726;DHT22;10524;48.132;8.518;2022-12-20T05:34:20;3.70;99.90
20726;DHT22;10524;48.132;8.518;2022-12-20T05:36:46;3.80;99.90
20726;DHT22;10524;48.132;8.518;2022-12-20T05:39:11;3.80;99.90
20726;DHT22;10524;48.132;8.518;2022-12-20T05:41:37;3.80;99.90
20726;DHT22;10524;48.132;8.518;2022-12-20T05:44:03;3.70;99.90
20726;DHT22;10524;48.132;8.518;2022-12-20T05:46:29;3.60;99.90
20726;DHT22;10524;48.132;8.518;2022-12-20T05:48:54;3.40;99.90
20726;DHT22;10524;48.132;8.518;2022-12-20T05:51:20;3.40;99.90
20726;DHT22;10524;48.132;8.518;2022-12-20T05:53:46;3.40;99.90
20726;DHT22;10524;48.132;8.518;2022-12-20T05:56:12;3.40;99.90
20726;DHT22;10524;48.132;8.518;2022-12-20T05:58:37;3.40;99.90
20726;DHT22;10524;48.132;8.518;2022-12-20T06:01:05;3.40;99.90
20726;DHT22;10524;48.132;8.518;2022-12-20T06:03:31;3.60;99.90
20726;DHT22;10524;48.132;8.518;2022-12-20T06:05:57;3.70;99.90
20726;DHT22;10524;48.132;8.518;2022-12-20T06:08:23;3.80;99.90
20726;DHT22;10524;48.132;8.518;2022-12-20T06:10:49;3.70;99.90
20726;DHT22;10524;48.132;8.518;2022-12-20T06:13:17;3.70;99.90
20726;DHT22;10524;48.132;8.518;2022-12-20T06:15:43;3.50;99.90
20726;DHT22;10524;48.132;8.518;2022-12-20T06:18:08;3.50;99.90
20726;DHT22;10524;48.132;8.518;2022-12-20T06:20:36;3.40;99.90
20726;DHT22;10524;48.132;8.518;2022-12-20T06:23:02;3.20;99.90
20726;DHT22;10524;48.132;8.518;2022-12-20T06:25:29;3.30;99.90
20726;DHT22;10524;48.132;8.518;2022-12-20T06:27:55;3.30;99.90
20726;DHT22;10524;48.132;8.518;2022-12-20T06:30:21;3.20;99.90
20726;DHT22;10524;48.132;8.518;2022-12-20T06:32:47;3.20;99.90
20726;DHT22;10524;48.132;8.518;2022-12-20T06:35:13;3.30;99.90
20726;DHT22;10524;48.132;8.518;2022-12-20T06:37:40;3.30;99.90
20726;DHT22;10524;48.132;8.518;2022-12-20T06:40:08;3.30;99.90
20726;DHT22;10524;48.132;8.518;2022-12-20T06:42:33;3.30;99.90
20726;DHT22;10524;48.132;8.518;2022-12-20T06:44:59;3.30;99.90
20726;DHT22;10524;48.132;8.518;2022-12-20T06:47:25;3.20;99.90
20726;DHT22;10524;48.132;8.518;2022-12-20T06:49:50;3.20;99.90
20726;DHT22;10524;48.132;8.518;2022-12-20T06:52:16;3.30;99.90
20726;DHT22;10524;48.132;8.518;2022-12-20T06:54:41;3.30;99.90
20726;DHT22;10524;48.132;8.518;2022-12-20T06:57:07;3.40;99.90
20726;DHT22;10524;48.132;8.518;2022-12-20T06:59:33;3.40;99.90
20726;DHT22;10524;48.132;8.518;2022-12-20T07:01:59;3.40;99.90
20726;DHT22;10524;48.132;8.518;2022-12-20T07:04:25;3.30;99.90
20726;DHT22;10524;48.132;8.518;2022-12-20T07:06:51;3.30;99.90
20726;DHT22;10524;48.132;8.518;2022-12-20T07:09:16;3.20;99.90
20726;DHT22;10524;48.132;8.518;2022-12-20T07:11:42;3.20;99.90
20726;DHT22;10524;48.132;8.518;2022-12-20T07:14:08;3.10;99.90
20726;DHT22;10524;48.132;8.518;2022-12-20T07:16:34;3.10;99.90
20726;DHT22;10524;48.132;8.518;2022-12-20T07:19:00;3.00;99.90
20726;DHT22;10524;48.132;8.518;2022-12-20T07:21:26;2.90;99.90
20726;DHT22;10524;48.132;8.518;2022-12-20T07:23:54;2.90;99.90
20726;DHT22;10524;48.132;8.518;2022-12-20T07:26:19;2.90;99.90
20726;DHT22;10524;48.132;8.518;2022-12-20T07:28:45;2.90;99.90
20726;DHT22;10524;48.132;8.518;2022-12-20T07:31:11;2.90;99.90
20726;DHT22;10524;48.132;8.518;2022-12-20T07:33:37;2.90;99.90
20726;DHT22;10524;48.132;8.518;2022-12-20T07:36:09;2.90;99.90
20726;DHT22;10524;48.132;8.518;2022-12-20T07:38:35;2.90;99.90
20726;DHT22;10524;48.132;8.518;2022-12-20T07:41:08;3.00;99.90
20726;DHT22;10524;48.132;8.518;2022-12-20T07:43:34;3.00;99.90
20726;DHT22;10524;48.132;8.518;2022-12-20T07:46:00;3.00;99.90
20726;DHT22;10524;48.132;8.518;2022-12-20T07:48:27;3.00;99.90
20726;DHT22;10524;48.132;8.518;2022-12-20T07:50:55;3.10;99.90
20726;DHT22;10524;48.132;8.518;2022-12-20T07:53:24;3.20;99.90
20726;DHT22;10524;48.132;8.518;2022-12-20T07:55:51;3.30;99.90
20726;DHT22;10524;48.132;8.518;2022-12-20T07:58:18;3.40;99.90
20726;DHT22;10524;48.132;8.518;2022-12-20T08:00:44;3.50;99.90
20726;DHT22;10524;48.132;8.518;2022-12-20T08:03:19;3.50;99.90
20726;DHT22;10524;48.132;8.518;2022-12-20T08:05:49;3.60;99.90
20726;DHT22;10524;48.132;8.518;2022-12-20T08:08:16;3.80;99.90
20726;DHT22;10524;48.132;8.518;2022-12-20T08:10:42;3.90;99.90
20726;DHT22;10524;48.132;8.518;2022-12-20T08:13:08;3.90;99.90
20726;DHT22;10524;48.132;8.518;2022-12-20T08:15:35;4.00;99.90
20726;DHT22;10524;48.132;8.518;2022-12-20T08:18:01;4.00;99.90
20726;DHT22;10524;48.132;8.518;2022-12-20T08:20:27;4.10;99.90
20726;DHT22;10524;48.132;8.518;2022-12-20T08:22:53;4.10;99.90
20726;DHT22;10524;48.132;8.518;2022-12-20T08:25:18;4.00;99.90
20726;DHT22;10524;48.132;8.518;2022-12-20T08:27:46;4.00;99.90
20726;DHT22;10524;48.132;8.518;2022-12-20T08:30:12;4.00;99.90
20726;DHT22;10524;48.132;8.518;2022-12-20T08:32:38;4.10;99.90
20726;DHT22;10524;48.132;8.518;2022-12-20T08:35:04;4.20;99.90
20726;DHT22;10524;48.132;8.518;2022-12-20T08:37:30;4.30;99.90
20726;DHT22;10524;48.132;8.518;2022-12-20T08:39:56;4.40;99.90
20726;DHT22;10524;48.132;8.518;2022-12-20T08:42:22;4.50;99.90
20726;DHT22;10524;48.132;8.518;2022-12-20T08:44:47;4.60;99.90
20726;DHT22;10524;48.132;8.518;2022-12-20T08:47:13;4.70;99.90
20726;DHT22;10524;48.132;8.518;2022-12-20T08:49:38;4.80;99.90
20726;DHT22;10524;48.132;8.518;2022-12-20T08:52:04;5.00;99.90
20726;DHT22;10524;48.132;8.518;2022-12-20T08:54:30;5.10;99.90
20726;DHT22;10524;48.132;8.518;2022-12-20T08:56:55;5.20;99.90
20726;DHT22;10524;48.132;8.518;2022-12-20T08:59:21;5.30;99.90
20726;DHT22;10524;48.132;8.518;2022-12-20T09:01:47;5.30;99.90
20726;DHT22;10524;48.132;8.518;2022-12-20T09:04:12;5.40;99.90
20726;DHT22;10524;48.132;8.518;2022-12-20T09:06:39;5.70;99.90
20726;DHT22;10524;48.132;8.518;2022-12-20T09:09:05;5.90;99.90
20726;DHT22;10524;48.132;8.518;2022-12-20T09:11:32;6.00;99.90
20726;DHT22;10524;48.132;8.518;2022-12-20T09:13:58;6.20;99.90
20726;DHT22;10524;48.132;8.518;2022-12-20T09:16:27;6.10;99.90
20726;DHT22;10524;48.132;8.518;2022-12-20T09:18:55;6.00;99.90
20726;DHT22;10524;48.132;8.518;2022-12-20T09:21:21;5.90;99.90
20726;DHT22;10524;48.132;8.518;2022-12-20T09:23:50;5.90;99.90
20726;DHT22;10524;48.132;8.518;2022-12-20T09:26:17;5.80;99.90
20726;DHT22;10524;48.132;8.518;2022-12-20T09:28:44;5.80;99.90
20726;DHT22;10524;48.132;8.518;2022-12-20T09:31:19;6.10;99.90
20726;DHT22;10524;48.132;8.518;2022-12-20T09:33:45;6.50;99.90
20726;DHT22;10524;48.132;8.518;2022-12-20T09:36:16;6.70;99.90
20726;DHT22;10524;48.132;8.518;2022-12-20T09:38:42;6.60;99.90
20726;DHT22;10524;48.132;8.518;2022-12-20T09:41:18;6.30;99.90
20726;DHT22;10524;48.132;8.518;2022-12-20T09:43:45;6.00;99.90
20726;DHT22;10524;48.132;8.518;2022-12-20T09:46:12;5.80;99.90
20726;DHT22;10524;48.132;8.518;2022-12-20T09:48:39;5.80;99.90
20726;DHT22;10524;48.132;8.518;2022-12-20T09:54:34;5.50;99.90
20726;DHT22;10524;48.132;8.518;2022-12-20T09:59:40;5.60;99.90
20726;DHT22;10524;48.132;8.518;2022-12-20T10:02:12;5.50;99.90
20726;DHT22;10524;48.132;8.518;2022-12-20T10:04:38;5.50;99.90
20726;DHT22;10524;48.132;8.518;2022-12-20T10:07:21;5.50;99.90
20726;DHT22;10524;48.132;8.518;2022-12-20T10:15:47;5.30;99.90
20726;DHT22;10524;48.132;8.518;2022-12-20T10:18:31;5.30;99.90
20726;DHT22;10524;48.132;8.518;2022-12-20T10:21:14;5.40;99.90
20726;DHT22;10524;48.132;8.518;2022-12-20T10:23:50;5.30;99.90
20726;DHT22;10524;48.132;8.518;2022-12-20T10:26:21;5.20;99.90
20726;DHT22;10524;48.132;8.518;2022-12-20T10:28:47;5.20;99.90
20726;DHT22;10524;48.132;8.518;2022-12-20T10:31:14;5.20;99.90
20726;DHT22;10524;48.132;8.518;2022-12-20T10:33:41;5.10;99.90
20726;DHT22;10524;48.132;8.518;2022-12-20T10:36:23;5.10;99.90
20726;DHT22;10524;48.132;8.518;2022-12-20T10:38:53;5.20;99.90
20726;DHT22;10524;48.132;8.518;2022-12-20T10:41:27;5.20;99.90
20726;DHT22;10524;48.132;8.518;2022-12-20T10:43:59;5.20;99.90
20726;DHT22;10524;48.132;8.518;2022-12-20T10:46:47;5.30;99.90
20726;DHT22;10524;48.132;8.518;2022-12-20T10:49:32;5.40;99.90
20726;DHT22;10524;48.132;8.518;2022-12-20T10:52:03;5.40;99.90
20726;DHT22;10524;48.132;8.518;2022-12-20T10:54:35;5.50;99.90
20726;DHT22;10524;48.132;8.518;2022-12-20T10:57:25;5.60;99.90
20726;DHT22;10524;48.132;8.518;2022-12-20T10:59:56;5.60;99.90
20726;DHT22;10524;48.132;8.518;2022-12-20T11:02:32;5.80;99.90
20726;DHT22;10524;48.132;8.518;2022-12-20T11:07:38;6.10;99.90
20726;DHT22;10524;48.132;8.518;2022-12-20T11:10:19;6.30;99.90
20726;DHT22;10524;48.132;8.518;2022-12-20T11:12:55;6.50;99.90
20726;DHT22;10524;48.132;8.518;2022-12-20T11:15:26;6.50;99.90
20726;DHT22;10524;48.132;8.518;2022-12-20T11:17:55;6.50;99.90
20726;DHT22;10524;48.132;8.518;2022-12-20T11:23:39;6.30;99.90
20726;DHT22;10524;48.132;8.518;2022-12-20T11:29:00;6.20;99.90
20726;DHT22;10524;48.132;8.518;2022-12-20T11:37:23;6.80;99.90
20726;DHT22;10524;48.132;8.518;2022-12-20T11:51:02;7.50;99.90
20726;DHT22;10524;48.132;8.518;2022-12-20T11:53:47;8.10;99.90
20726;DHT22;10524;48.132;8.518;2022-12-20T12:01:30;7.70;99.90
20726;DHT22;10524;48.132;8.518;2022-12-20T12:07:09;6.90;99.90
20726;DHT22;10524;48.132;8.518;2022-12-20T12:12:53;6.70;99.90
20726;DHT22;10524;48.132;8.518;2022-12-20T12:15:19;6.80;99.90
20726;DHT22;10524;48.132;8.518;2022-12-20T12:17:57;7.00;99.90
20726;DHT22;10524;48.132;8.518;2022-12-20T12:20:34;7.00;99.90
20726;DHT22;10524;48.132;8.518;2022-12-20T12:25:38;6.70;99.90
20726;DHT22;10524;48.132;8.518;2022-12-20T12:28:04;6.50;99.90
20726;DHT22;10524;48.132;8.518;2022-12-20T12:30:37;6.40;99.90
20726;DHT22;10524;48.132;8.518;2022-12-20T12:33:15;6.30;99.90
20726;DHT22;10524;48.132;8.518;2022-12-20T12:36:08;6.50;99.90
20726;DHT22;10524;48.132;8.518;2022-12-20T12:38:59;6.50;99.90
20726;DHT22;10524;48.132;8.518;2022-12-20T12:46:49;10.90;99.90
20726;DHT22;10524;48.132;8.518;2022-12-20T12:49:19;10.60;99.90
20726;DHT22;10524;48.132;8.518;2022-12-20T12:51:52;10.30;99.90
20726;DHT22;10524;48.132;8.518;2022-12-20T12:56:49;8.90;99.90
20726;DHT22;10524;48.132;8.518;2022-12-20T12:59:23;8.50;99.90
20726;DHT22;10524;48.132;8.518;2022-12-20T13:13:11;7.10;99.90
20726;DHT22;10524;48.132;8.518;2022-12-20T13:20:37;6.90;99.90
20726;DHT22;10524;48.132;8.518;2022-12-20T13:25:38;7.20;99.90
20726;DHT22;10524;48.132;8.518;2022-12-20T13:41:43;7.80;99.90
20726;DHT22;10524;48.132;8.518;2022-12-20T13:47:00;7.70;99.90
20726;DHT22;10524;48.132;8.518;2022-12-20T13:49:40;7.40;99.90
20726;DHT22;10524;48.132;8.518;2022-12-20T13:54:49;7.50;99.90
20726;DHT22;10524;48.132;8.518;2022-12-20T13:57:23;7.40;99.90
20726;DHT22;10524;48.132;8.518;2022-12-20T13:59:53;7.40;99.90
20726;DHT22;10524;48.132;8.518;2022-12-20T14:02:29;7.50;99.90
20726;DHT22;10524;48.132;8.518;2022-12-20T14:05:00;7.50;99.90
20726;DHT22;10524;48.132;8.518;2022-12-20T14:07:27;7.40;99.90
20726;DHT22;10524;48.132;8.518;2022-12-20T14:09:56;7.20;99.90
20726;DHT22;10524;48.132;8.518;2022-12-20T14:12:22;7.00;99.90
20726;DHT22;10524;48.132;8.518;2022-12-20T14:14:49;6.80;99.90
20726;DHT22;10524;48.132;8.518;2022-12-20T14:17:30;6.70;99.90
20726;DHT22;10524;48.132;8.518;2022-12-20T14:20:17;6.70;99.90
20726;DHT22;10524;48.132;8.518;2022-12-20T14:23:14;6.80;99.90
20726;DHT22;10524;48.132;8.518;2022-12-20T14:25:47;6.90;99.90
20726;DHT22;10524;48.132;8.518;2022-12-20T14:28:39;7.00;99.90
20726;DHT22;10524;48.132;8.518;2022-12-20T14:31:42;7.20;99.90
20726;DHT22;10524;48.132;8.518;2022-12-20T14:36:36;7.60;99.90
20726;DHT22;10524;48.132;8.518;2022-12-20T14:39:22;7.80;99.90
20726;DHT22;10524;48.132;8.518;2022-12-20T14:44:30;7.80;99.90
20726;DHT22;10524;48.132;8.518;2022-12-20T14:47:18;7.50;99.90
20726;DHT22;10524;48.132;8.518;2022-12-20T14:49:48;7.30;99.90
20726;DHT22;10524;48.132;8.518;2022-12-20T14:52:20;7.10;99.90
20726;DHT22;10524;48.132;8.518;2022-12-20T14:57:27;6.60;99.90
20726;DHT22;10524;48.132;8.518;2022-12-20T15:00:15;6.40;99.90
20726;DHT22;10524;48.132;8.518;2022-12-20T15:02:56;6.20;99.90
20726;DHT22;10524;48.132;8.518;2022-12-20T15:10:43;5.60;99.90
20726;DHT22;10524;48.132;8.518;2022-12-20T15:13:15;5.40;99.90
20726;DHT22;10524;48.132;8.518;2022-12-20T15:15:42;5.10;99.90
20726;DHT22;10524;48.132;8.518;2022-12-20T15:18:15;5.00;99.90
20726;DHT22;10524;48.132;8.518;2022-12-20T15:20:43;4.80;99.90
20726;DHT22;10524;48.132;8.518;2022-12-20T15:23:16;4.60;99.90
20726;DHT22;10524;48.132;8.518;2022-12-20T15:25:42;4.50;99.90
20726;DHT22;10524;48.132;8.518;2022-12-20T15:28:14;4.40;99.90
20726;DHT22;10524;48.132;8.518;2022-12-20T15:30:41;4.40;99.90
20726;DHT22;10524;48.132;8.518;2022-12-20T15:33:17;4.40;99.90
20726;DHT22;10524;48.132;8.518;2022-12-20T15:35:44;4.40;99.90
20726;DHT22;10524;48.132;8.518;2022-12-20T15:38:21;4.40;99.90
20726;DHT22;10524;48.132;8.518;2022-12-20T15:40:49;4.40;99.90
20726;DHT22;10524;48.132;8.518;2022-12-20T15:43:18;4.30;99.90
20726;DHT22;10524;48.132;8.518;2022-12-20T15:45:45;4.30;99.90
20726;DHT22;10524;48.132;8.518;2022-12-20T15:48:14;4.30;99.90
20726;DHT22;10524;48.132;8.518;2022-12-20T15:50:42;4.60;99.90
20726;DHT22;10524;48.132;8.518;2022-12-20T15:53:14;4.80;99.90
20726;DHT22;10524;48.132;8.518;2022-12-20T15:55:39;4.90;99.90
20726;DHT22;10524;48.132;8.518;2022-12-20T15:58:05;4.90;99.90
20726;DHT22;10524;48.132;8.518;2022-12-20T16:00:31;4.80;99.90
20726;DHT22;10524;48.132;8.518;2022-12-20T16:02:58;4.80;99.90
20726;DHT22;10524;48.132;8.518;2022-12-20T16:05:25;4.80;99.90
20726;DHT22;10524;48.132;8.518;2022-12-20T16:07:51;4.80;99.90
20726;DHT22;10524;48.132;8.518;2022-12-20T16:10:16;4.70;99.90
20726;DHT22;10524;48.132;8.518;2022-12-20T16:12:42;4.60;99.90
20726;DHT22;10524;48.132;8.518;2022-12-20T16:15:19;4.40;99.90
20726;DHT22;10524;48.132;8.518;2022-12-20T16:17:45;4.40;99.90
20726;DHT22;10524;48.132;8.518;2022-12-20T16:20:10;4.40;99.90
20726;DHT22;10524;48.132;8.518;2022-12-20T16:22:36;4.40;99.90
20726;DHT22;10524;48.132;8.518;2022-12-20T16:25:02;4.40;99.90
20726;DHT22;10524;48.132;8.518;2022-12-20T16:27:27;4.40;99.90
20726;DHT22;10524;48.132;8.518;2022-12-20T16:29:53;4.30;99.90
20726;DHT22;10524;48.132;8.518;2022-12-20T16:32:19;4.30;99.90
20726;DHT22;10524;48.132;8.518;2022-12-20T16:34:50;4.30;99.90
20726;DHT22;10524;48.132;8.518;2022-12-20T16:37:15;4.20;99.90
20726;DHT22;10524;48.132;8.518;2022-12-20T16:39:41;4.20;99.90
20726;DHT22;10524;48.132;8.518;2022-12-20T16:42:17;4.20;99.90
20726;DHT22;10524;48.132;8.518;2022-12-20T16:44:43;4.20;99.90
20726;DHT22;10524;48.132;8.518;2022-12-20T16:47:10;4.30;99.90
20726;DHT22;10524;48.132;8.518;2022-12-20T16:49:36;4.30;99.90
20726;DHT22;10524;48.132;8.518;2022-12-20T16:52:03;4.40;99.90
20726;DHT22;10524;48.132;8.518;2022-12-20T16:54:31;4.40;99.90
20726;DHT22;10524;48.132;8.518;2022-12-20T16:56:56;4.40;99.90
20726;DHT22;10524;48.132;8.518;2022-12-20T16:59:23;4.40;99.90
20726;DHT22;10524;48.132;8.518;2022-12-20T17:01:51;4.30;99.90
20726;DHT22;10524;48.132;8.518;2022-12-20T17:04:18;4.30;99.90
20726;DHT22;10524;48.132;8.518;2022-12-20T17:06:44;4.20;99.90
20726;DHT22;10524;48.132;8.518;2022-12-20T17:09:11;4.20;99.90
20726;DHT22;10524;48.132;8.518;2022-12-20T17:11:37;4.10;99.90
20726;DHT22;10524;48.132;8.518;2022-12-20T17:14:03;4.10;99.90
20726;DHT22;10524;48.132;8.518;2022-12-20T17:16:29;4.10;99.90
20726;DHT22;10524;48.132;8.518;2022-12-20T17:18:55;4.10;99.90
20726;DHT22;10524;48.132;8.518;2022-12-20T17:21:34;4.10;99.90
20726;DHT22;10524;48.132;8.518;2022-12-20T17:24:04;4.20;99.90
20726;DHT22;10524;48.132;8.518;2022-12-20T17:26:31;4.20;99.90
20726;DHT22;10524;48.132;8.518;2022-12-20T17:28:57;4.20;99.90
20726;DHT22;10524;48.132;8.518;2022-12-20T17:31:35;4.10;99.90
20726;DHT22;10524;48.132;8.518;2022-12-20T17:34:21;4.10;99.90
20726;DHT22;10524;48.132;8.518;2022-12-20T17:36:47;4.10;99.90
20726;DHT22;10524;48.132;8.518;2022-12-20T17:39:14;4.10;99.90
20726;DHT22;10524;48.132;8.518;2022-12-20T17:41:40;4.10;99.90
20726;DHT22;10524;48.132;8.518;2022-12-20T17:44:27;4.10;99.90
20726;DHT22;10524;48.132;8.518;2022-12-20T17:46:54;4.10;99.90
20726;DHT22;10524;48.132;8.518;2022-12-20T17:49:21;4.10;99.90
20726;DHT22;10524;48.132;8.518;2022-12-20T17:51:49;4.00;99.90
20726;DHT22;10524;48.132;8.518;2022-12-20T17:54:20;4.00;99.90
20726;DHT22;10524;48.132;8.518;2022-12-20T17:56:48;4.00;99.90
20726;DHT22;10524;48.132;8.518;2022-12-20T17:59:18;3.90;99.90
20726;DHT22;10524;48.132;8.518;2022-12-20T18:01:45;3.90;99.90
20726;DHT22;10524;48.132;8.518;2022-12-20T18:04:13;3.90;99.90
20726;DHT22;10524;48.132;8.518;2022-12-20T18:06:41;3.90;99.90